createdAt,value
2023-03-01T00:00:26.184Z,56.72
2023-03-01T00:03:12.269Z,57.09
2023-03-01T00:05:59.258Z,57.28
2023-03-01T00:08:44.965Z,57.39
2023-03-01T00:11:32.549Z,56.63
2023-03-01T00:14:18.535Z,56.70
2023-03-01T00:17:05.746Z,57.13
2023-03-01T00:19:51.703Z,57.19
2023-03-01T00:22:38.206Z,56.90
2023-03-01T00:25:24.014Z,56.81
2023-03-01T00:28:09.806Z,56.99
2023-03-01T00:30:55.873Z,56.69
2023-03-01T00:33:42.034Z,56.92
2023-03-01T00:36:30.979Z,57.18
2023-03-01T00:39:17.108Z,56.92
2023-03-01T00:42:03.946Z,56.66
2023-03-01T00:44:49.991Z,57.42
2023-03-01T00:47:35.875Z,57.13
2023-03-01T00:50:21.833Z,56.80
2023-03-01T00:53:07.841Z,56.65
2023-03-01T00:55:53.505Z,57.08
2023-03-01T00:58:39.622Z,56.93
2023-03-01T01:01:32.752Z,57.00
2023-03-01T01:04:18.475Z,57.26
2023-03-01T01:07:04.395Z,57.05
2023-03-01T01:09:50.219Z,56.97
2023-03-01T01:12:38.525Z,56.81
2023-03-01T01:15:24.161Z,56.93
2023-03-01T01:18:10.153Z,57.01
2023-03-01T01:20:56.152Z,56.94
2023-03-01T01:23:43.839Z,56.89
2023-03-01T01:26:32.510Z,56.76
2023-03-01T01:29:18.841Z,56.71
2023-03-01T01:32:05.033Z,56.80
2023-03-01T01:34:50.943Z,57.14
2023-03-01T01:37:37.118Z,56.59
2023-03-01T01:40:23.025Z,56.97
2023-03-01T01:43:18.517Z,56.76
2023-03-01T01:46:34.021Z,56.98
2023-03-01T01:49:20.236Z,56.69
2023-03-01T01:52:41.571Z,56.76
2023-03-01T01:55:28.687Z,56.47
2023-03-01T01:58:17.067Z,56.51
2023-03-01T02:01:03.877Z,56.48
2023-03-01T02:03:50.484Z,56.84
2023-03-01T02:06:43.303Z,57.00
2023-03-01T02:09:29.291Z,56.89
2023-03-01T02:12:19.012Z,57.30
2023-03-01T02:15:05.469Z,57.59
2023-03-01T02:17:51.843Z,57.28
2023-03-01T02:21:31.325Z,57.66
2023-03-01T02:24:29.082Z,57.58
2023-03-01T02:27:18.831Z,57.24
2023-03-01T02:30:04.920Z,57.37
2023-03-01T02:32:52.565Z,57.47
2023-03-01T02:35:39.892Z,57.18
2023-03-01T02:38:25.915Z,57.19
2023-03-01T02:41:17.469Z,57.31
2023-03-01T02:44:04.528Z,56.96
2023-03-01T02:46:53.102Z,56.99
2023-03-01T02:49:39.765Z,56.82
2023-03-01T02:52:29.618Z,56.79
2023-03-01T02:55:17.500Z,57.08
2023-03-01T02:58:04.719Z,56.82
2023-03-01T03:00:52.680Z,57.00
2023-03-01T03:03:38.815Z,57.20
2023-03-01T03:06:25.240Z,57.25
2023-03-01T03:09:11.507Z,57.24
2023-03-01T03:11:57.625Z,57.27
2023-03-01T03:14:44.774Z,56.99
2023-03-01T03:17:30.619Z,56.80
2023-03-01T03:20:21.584Z,57.15
2023-03-01T03:23:07.704Z,57.23
2023-03-01T03:25:53.392Z,56.91
2023-03-01T03:28:40.974Z,57.06
2023-03-01T03:31:27.345Z,56.75
2023-03-01T03:34:19.113Z,56.80
2023-03-01T03:37:25.263Z,57.00
2023-03-01T03:40:16.535Z,57.02
2023-03-01T03:43:06.735Z,56.72
2023-03-01T03:45:52.886Z,57.03
2023-03-01T03:48:44.903Z,57.05
2023-03-01T03:51:30.892Z,57.41
2023-03-01T03:54:16.706Z,57.18
2023-03-01T03:57:02.757Z,57.06
2023-03-01T03:59:48.437Z,57.46
2023-03-01T04:02:34.349Z,56.88
2023-03-01T04:05:20.359Z,56.93
2023-03-01T04:08:09.799Z,57.16
2023-03-01T04:11:23.571Z,57.30
2023-03-01T04:14:09.360Z,57.12
2023-03-01T04:16:55.159Z,57.03
2023-03-01T04:19:40.924Z,57.17
2023-03-01T04:22:30.630Z,57.28
2023-03-01T04:25:16.474Z,56.98
2023-03-01T04:28:02.163Z,57.20
2023-03-01T04:30:49.195Z,57.06
2023-03-01T04:33:34.828Z,56.78
2023-03-01T04:36:23.060Z,57.20
2023-03-01T04:39:13.320Z,57.33
2023-03-01T04:41:59.794Z,57.30
2023-03-01T04:44:46.128Z,57.18
2023-03-01T04:47:32.323Z,56.93
2023-03-01T04:50:21.294Z,57.02
2023-03-01T04:53:07.248Z,57.03
2023-03-01T04:55:52.995Z,57.24
2023-03-01T04:58:39.140Z,57.15
2023-03-01T05:01:24.743Z,57.06
2023-03-01T05:04:14.499Z,57.02
2023-03-01T05:07:00.424Z,56.96
2023-03-01T05:09:48.596Z,56.97
2023-03-01T05:12:38.478Z,56.79
2023-03-01T05:15:28.941Z,56.97
2023-03-01T05:18:15.209Z,57.30
2023-03-01T05:21:13.656Z,57.28
2023-03-01T05:23:59.622Z,57.41
2023-03-01T05:26:46.040Z,57.31
2023-03-01T05:29:32.561Z,57.26
2023-03-01T05:32:18.676Z,57.54
2023-03-01T05:35:05.149Z,57.37
2023-03-01T05:37:51.300Z,57.48
2023-03-01T05:40:36.974Z,57.22
2023-03-01T05:43:22.725Z,57.65
2023-03-01T05:46:12.323Z,57.72
2023-03-01T05:48:58.163Z,57.13
2023-03-01T05:51:48.336Z,57.26
2023-03-01T05:54:34.457Z,56.80
2023-03-01T05:57:21.284Z,57.03
2023-03-01T06:00:09.558Z,56.98
2023-03-01T06:02:59.165Z,56.89
2023-03-01T06:05:45.541Z,57.58
2023-03-01T06:08:31.621Z,57.32
2023-03-01T06:11:17.481Z,57.33
2023-03-01T06:14:03.975Z,56.99
2023-03-01T06:16:50.134Z,57.36
2023-03-01T06:19:36.150Z,57.35
2023-03-01T06:22:21.901Z,57.17
2023-03-01T06:25:08.793Z,57.13
2023-03-01T06:27:54.730Z,57.23
2023-03-01T06:30:40.800Z,57.29
2023-03-01T06:33:26.392Z,56.84
2023-03-01T06:36:12.087Z,57.32
2023-03-01T06:38:57.700Z,56.97
2023-03-01T06:41:43.581Z,57.19
2023-03-01T06:44:29.591Z,57.17
2023-03-01T06:47:15.402Z,56.74
2023-03-01T06:50:02.283Z,57.02
2023-03-01T06:55:35.410Z,57.08
2023-03-01T06:58:21.310Z,57.12
2023-03-01T07:01:10.766Z,56.89
2023-03-01T07:03:56.568Z,57.23
2023-03-01T07:06:42.182Z,57.32
2023-03-01T07:09:28.192Z,56.96
2023-03-01T07:12:14.067Z,56.82
2023-03-01T07:14:59.979Z,56.79
2023-03-01T07:17:48.684Z,56.63
2023-03-01T07:20:34.615Z,57.13
2023-03-01T07:23:20.254Z,56.58
2023-03-01T07:26:06.478Z,57.36
2023-03-01T07:28:52.722Z,57.37
2023-03-01T07:31:38.642Z,57.01
2023-03-01T07:34:25.062Z,56.88
2023-03-01T07:37:23.906Z,56.77
2023-03-01T07:40:10.497Z,56.89
2023-03-01T07:42:57.748Z,56.96
2023-03-01T07:45:43.711Z,56.84
2023-03-01T07:48:30.660Z,56.83
2023-03-01T07:51:17.015Z,56.75
2023-03-01T07:54:03.990Z,56.61
2023-03-01T07:56:49.684Z,57.14
2023-03-01T07:59:36.377Z,56.72
2023-03-01T08:02:22.171Z,56.73
2023-03-01T08:05:08.354Z,56.66
2023-03-01T08:07:54.631Z,56.76
2023-03-01T08:10:40.546Z,56.83
2023-03-01T08:13:26.618Z,56.41
2023-03-01T08:16:15.267Z,56.38
2023-03-01T08:19:05.788Z,56.48
2023-03-01T08:21:52.068Z,56.31
2023-03-01T08:24:38.026Z,56.53
2023-03-01T08:27:24.589Z,55.90
2023-03-01T08:30:10.917Z,56.47
2023-03-01T08:32:57.213Z,55.87
2023-03-01T08:35:42.863Z,55.24
2023-03-01T08:38:28.737Z,55.58
2023-03-01T08:41:15.371Z,55.71
2023-03-01T08:44:02.296Z,55.76
2023-03-01T08:46:48.264Z,55.77
2023-03-01T08:49:34.300Z,55.66
2023-03-01T08:52:23.514Z,55.99
2023-03-01T08:55:10.062Z,56.11
2023-03-01T08:57:56.547Z,56.51
2023-03-01T09:00:43.482Z,55.62
2023-03-01T09:03:29.847Z,56.54
2023-03-01T09:06:16.850Z,56.82
2023-03-01T09:09:04.922Z,56.96
2023-03-01T09:11:51.872Z,56.28
2023-03-01T09:14:39.897Z,56.34
2023-03-01T09:17:25.510Z,56.23
2023-03-01T09:20:11.816Z,56.41
2023-03-01T09:22:57.998Z,57.06
2023-03-01T09:25:43.694Z,56.79
2023-03-01T09:28:30.551Z,56.07
2023-03-01T09:31:17.322Z,56.51
2023-03-01T09:34:04.719Z,56.35
2023-03-01T09:36:51.717Z,56.44
2023-03-01T09:39:37.466Z,56.44
2023-03-01T09:42:23.364Z,56.23
2023-03-01T09:45:35.725Z,55.71
2023-03-01T09:48:24.560Z,56.04
2023-03-01T09:51:20.487Z,56.32
2023-03-01T09:54:07.324Z,56.30
2023-03-01T09:57:07.000Z,55.65
2023-03-01T10:00:05.608Z,56.40
2023-03-01T10:03:12.796Z,56.55
2023-03-01T10:06:34.037Z,56.53
2023-03-01T10:09:22.458Z,56.23
2023-03-01T10:12:35.601Z,56.18
2023-03-01T10:16:12.196Z,55.77
2023-03-01T10:19:03.699Z,55.96
2023-03-01T10:21:50.971Z,55.63
2023-03-01T10:24:37.467Z,55.29
2023-03-01T10:27:29.243Z,55.72
2023-03-01T10:30:40.624Z,55.02
2023-03-01T10:33:29.309Z,55.49
2023-03-01T10:36:15.141Z,55.80
2023-03-01T10:39:12.213Z,55.50
2023-03-01T10:42:14.905Z,55.88
2023-03-01T10:45:31.428Z,55.43
2023-03-01T10:48:24.622Z,55.54
2023-03-01T10:51:18.681Z,55.49
2023-03-01T10:54:05.920Z,55.52
2023-03-01T10:57:00.648Z,55.62
2023-03-01T10:59:46.609Z,55.11
2023-03-01T11:02:35.194Z,54.86
2023-03-01T11:05:25.398Z,55.12
2023-03-01T11:08:11.349Z,55.48
2023-03-01T11:11:28.870Z,55.37
2023-03-01T11:14:27.327Z,55.09
2023-03-01T11:17:22.286Z,55.04
2023-03-01T11:20:37.853Z,55.42
2023-03-01T11:23:23.936Z,55.67
2023-03-01T11:26:12.877Z,55.06
2023-03-01T11:29:02.433Z,55.58
2023-03-01T11:31:57.279Z,55.20
2023-03-01T11:34:51.975Z,55.34
2023-03-01T11:38:00.122Z,55.90
2023-03-01T11:41:00.178Z,55.51
2023-03-01T11:44:06.460Z,55.58
2023-03-01T11:47:08.723Z,55.47
2023-03-01T11:50:08.920Z,55.35
2023-03-01T11:52:55.915Z,55.58
